Time;durP1;ratioP1;P1;durP2;ratioP2;P2;SDS_P1;SDS_P2;PMS_P1;PMS_P2;Temp;Humidity;BMP_temperature;BMP_pressure;BME280_temperature;BME280_humidity;BME280_pressure;Samples;Min_cycle;Max_cycle;Signal;HPM_P1;HPM_P2
2023/06/21 00:00:29;;;;;;;22.30;20.40;;;24.40;99.90;;;;;;6327315;28;20245;-60
2023/06/21 00:03:35;;;;;;;22.67;20.97;;;24.30;99.90;;;;;;6327763;28;20222;-60
2023/06/21 00:06:38;;;;;;;21.60;19.93;;;24.30;99.90;;;;;;6327751;28;20222;-60
2023/06/21 00:09:42;;;;;;;22.73;20.90;;;24.20;99.90;;;;;;6327570;28;20240;-60
2023/06/21 00:12:46;;;;;;;21.80;19.90;;;24.20;99.90;;;;;;6309926;28;20662;-60
2023/06/21 00:15:50;;;;;;;22.00;20.13;;;24.20;99.90;;;;;;6327133;28;20325;-60
2023/06/21 00:18:53;;;;;;;20.60;18.90;;;24.20;99.90;;;;;;6321942;28;20232;-60
2023/06/21 00:21:58;;;;;;;19.87;18.37;;;24.10;99.90;;;;;;6327185;28;20256;-60
2023/06/21 00:25:01;;;;;;;20.60;18.90;;;24.10;99.90;;;;;;6327238;28;20296;-60
2023/06/21 00:28:05;;;;;;;21.87;20.07;;;24.00;99.90;;;;;;6326098;28;20265;-60
2023/06/21 00:31:10;;;;;;;23.20;20.93;;;24.00;99.90;;;;;;6326088;28;20306;-60
2023/06/21 00:34:13;;;;;;;22.90;20.90;;;23.90;99.90;;;;;;6326916;28;20237;-60
2023/06/21 00:37:17;;;;;;;22.40;20.40;;;23.90;99.90;;;;;;6326546;28;20689;-60
2023/06/21 00:40:22;;;;;;;22.53;20.60;;;23.90;99.90;;;;;;6326630;28;20313;-60
2023/06/21 00:43:27;;;;;;;22.53;20.73;;;23.80;99.90;;;;;;6326812;28;20232;-60
2023/06/21 00:46:30;;;;;;;23.37;21.13;;;23.80;99.90;;;;;;6326397;28;20667;-60
2023/06/21 00:49:35;;;;;;;21.43;19.73;;;23.80;99.90;;;;;;6326832;28;20225;-60
2023/06/21 00:52:39;;;;;;;23.20;21.40;;;23.80;99.90;;;;;;6326502;28;20575;-60
2023/06/21 00:55:43;;;;;;;21.87;20.17;;;23.80;99.90;;;;;;6326432;28;20248;-60
2023/06/21 00:58:47;;;;;;;23.13;21.23;;;23.70;99.90;;;;;;6326191;28;20233;-60
2023/06/21 01:01:51;;;;;;;21.20;19.50;;;23.60;99.90;;;;;;6325645;28;20232;-60
2023/06/21 01:04:54;;;;;;;21.83;20.13;;;23.60;99.90;;;;;;6326329;28;20347;-60
2023/06/21 01:08:03;;;;;;;21.70;20.07;;;23.60;99.90;;;;;;6326396;28;20198;-60
2023/06/21 01:11:14;;;;;;;23.73;21.77;;;23.60;99.90;;;;;;6326216;28;20245;-60
2023/06/21 01:14:27;;;;;;;21.90;20.07;;;23.50;99.90;;;;;;6326557;28;20222;-60
2023/06/21 01:17:34;;;;;;;21.30;19.53;;;23.50;99.90;;;;;;6325975;28;20244;-60
2023/06/21 01:20:38;;;;;;;22.43;20.67;;;23.50;99.90;;;;;;6326019;28;20230;-60
2023/06/21 01:23:52;;;;;;;20.70;19.10;;;23.50;99.90;;;;;;6311744;28;20226;-61
2023/06/21 01:27:35;;;;;;;21.00;19.30;;;23.40;99.90;;;;;;6325657;28;20700;-60
2023/06/21 01:30:40;;;;;;;22.47;20.63;;;23.40;99.90;;;;;;6325311;28;20260;-60
2023/06/21 01:33:45;;;;;;;20.73;19.13;;;23.40;99.90;;;;;;6325513;28;20226;-60
2023/06/21 01:36:48;;;;;;;22.90;21.10;;;23.30;99.90;;;;;;6325340;28;20309;-60
2023/06/21 01:39:52;;;;;;;22.50;20.77;;;23.30;99.90;;;;;;6325345;28;20536;-60
2023/06/21 01:42:55;;;;;;;20.80;19.00;;;23.30;99.90;;;;;;6325204;28;20291;-60
2023/06/21 01:46:01;;;;;;;21.20;19.40;;;23.30;99.90;;;;;;6324848;28;20230;-60
2023/06/21 01:49:06;;;;;;;23.27;21.17;;;23.40;99.90;;;;;;6324808;28;20234;-60
2023/06/21 01:52:11;;;;;;;24.30;22.50;;;23.40;99.90;;;;;;6324999;28;20258;-61
2023/06/21 01:55:15;;;;;;;23.50;21.60;;;23.40;99.90;;;;;;6324822;28;20313;-59
2023/06/21 01:58:18;;;;;;;23.90;22.00;;;23.40;99.90;;;;;;6325082;28;20230;-59
2023/06/21 02:01:26;;;;;;;24.93;22.63;;;23.40;99.90;;;;;;6324857;28;20233;-60
2023/06/21 02:04:31;;;;;;;25.20;23.10;;;23.30;99.90;;;;;;6324704;28;20222;-60
2023/06/21 02:07:34;;;;;;;24.40;22.40;;;23.30;99.90;;;;;;6325021;28;20226;-60
2023/06/21 02:10:38;;;;;;;26.30;23.77;;;23.30;99.90;;;;;;6324614;28;20226;-60
2023/06/21 02:13:41;;;;;;;26.10;23.90;;;23.20;99.90;;;;;;6324350;28;20234;-60
2023/06/21 02:16:45;;;;;;;23.87;21.67;;;23.10;99.90;;;;;;6324542;28;20241;-60
2023/06/21 02:19:49;;;;;;;24.30;22.30;;;23.10;99.90;;;;;;6324335;28;20401;-60
2023/06/21 02:22:53;;;;;;;23.63;21.63;;;23.00;99.90;;;;;;6324413;28;20561;-60
2023/06/21 02:25:56;;;;;;;23.20;21.40;;;23.00;99.90;;;;;;6315182;28;20202;-60
2023/06/21 02:28:59;;;;;;;25.03;22.93;;;23.10;99.90;;;;;;6324672;28;20495;-60
2023/06/21 02:32:04;;;;;;;24.90;22.80;;;23.20;99.90;;;;;;6324614;28;20226;-60
2023/06/21 02:35:09;;;;;;;24.73;22.60;;;23.20;99.90;;;;;;6324328;28;20241;-59
2023/06/21 02:38:13;;;;;;;25.97;23.67;;;23.10;99.90;;;;;;6324901;28;20230;-60
2023/06/21 02:41:16;;;;;;;23.63;21.67;;;23.10;99.90;;;;;;6323988;28;20230;-60
2023/06/21 02:44:19;;;;;;;24.60;22.50;;;23.00;99.90;;;;;;6324389;28;20264;-60
2023/06/21 02:47:23;;;;;;;23.80;21.80;;;22.90;99.90;;;;;;6323956;28;20678;-60
2023/06/21 02:50:27;;;;;;;25.27;23.07;;;22.90;99.90;;;;;;6324006;28;20663;-60
2023/06/21 02:53:30;;;;;;;24.37;22.37;;;22.80;99.90;;;;;;6324018;28;20331;-60
2023/06/21 02:56:33;;;;;;;23.80;21.90;;;22.80;99.90;;;;;;6324165;28;20232;-59
2023/06/21 02:59:37;;;;;;;24.47;22.53;;;22.80;99.90;;;;;;6323565;28;20558;-60
2023/06/21 03:02:44;;;;;;;22.60;20.80;;;22.70;99.90;;;;;;6324167;28;20226;-60
2023/06/21 03:05:47;;;;;;;25.33;23.30;;;22.60;99.90;;;;;;6323773;28;20650;-60
2023/06/21 03:08:51;;;;;;;24.33;22.33;;;22.70;99.90;;;;;;6324383;28;20226;-60
2023/06/21 03:11:54;;;;;;;23.03;21.10;;;22.70;99.90;;;;;;6324025;28;20755;-60
2023/06/21 03:14:57;;;;;;;24.30;22.20;;;22.80;99.90;;;;;;6324388;28;20233;-60
2023/06/21 03:18:02;;;;;;;23.87;21.97;;;22.80;99.90;;;;;;6324090;28;20229;-60
2023/06/21 03:21:05;;;;;;;23.83;21.83;;;22.80;99.90;;;;;;6322946;28;20567;-60
2023/06/21 03:24:08;;;;;;;25.00;22.83;;;22.80;99.90;;;;;;6324319;28;20226;-59
2023/06/21 03:27:12;;;;;;;24.53;22.13;;;22.90;99.90;;;;;;6330210;28;20244;-59
2023/06/21 03:30:15;;;;;;;24.50;22.47;;;22.90;99.90;;;;;;6326658;28;20230;-59
2023/06/21 03:33:19;;;;;;;23.70;21.80;;;22.80;99.90;;;;;;6331415;28;20276;-59
2023/06/21 03:36:22;;;;;;;24.10;22.17;;;22.80;99.90;;;;;;6330554;28;20241;-61
2023/06/21 03:39:26;;;;;;;24.13;22.13;;;22.90;99.90;;;;;;6328914;28;20311;-62
2023/06/21 03:42:29;;;;;;;23.97;21.77;;;22.90;99.90;;;;;;6328296;28;20323;-60
2023/06/21 03:45:32;;;;;;;24.77;22.67;;;22.90;99.90;;;;;;6328240;28;20226;-61
2023/06/21 03:48:36;;;;;;;24.60;22.60;;;23.00;99.90;;;;;;6328760;28;20299;-62
2023/06/21 03:51:40;;;;;;;24.17;22.17;;;23.00;99.90;;;;;;6328396;28;20299;-61
2023/06/21 03:54:43;;;;;;;24.10;22.07;;;23.00;99.90;;;;;;6327992;28;20238;-61
2023/06/21 03:57:47;;;;;;;24.57;22.43;;;23.00;99.90;;;;;;6327570;28;20226;-61
2023/06/21 04:00:51;;;;;;;25.33;23.23;;;23.00;99.90;;;;;;6327296;28;20331;-60
2023/06/21 04:03:56;;;;;;;24.10;22.00;;;23.10;99.90;;;;;;6327574;28;20236;-61
2023/06/21 04:06:59;;;;;;;25.03;22.50;;;23.10;99.90;;;;;;6327388;28;20725;-62
2023/06/21 04:10:02;;;;;;;24.00;22.10;;;23.10;99.90;;;;;;6327581;28;20391;-61
2023/06/21 04:13:05;;;;;;;24.87;22.63;;;23.10;99.90;;;;;;6327382;28;20230;-61
2023/06/21 04:16:09;;;;;;;25.27;23.07;;;23.20;99.90;;;;;;6327625;28;20222;-61
2023/06/21 04:19:13;;;;;;;25.57;23.23;;;23.20;99.90;;;;;;6327195;28;20241;-61
2023/06/21 04:22:16;;;;;;;25.87;23.60;;;23.10;99.90;;;;;;6327311;28;20232;-62
2023/06/21 04:25:20;;;;;;;26.57;24.20;;;23.20;99.90;;;;;;6327376;28;20229;-61
2023/06/21 04:28:24;;;;;;;25.23;23.07;;;23.20;99.90;;;;;;6326983;28;20257;-61
2023/06/21 04:31:28;;;;;;;25.23;23.13;;;23.30;99.90;;;;;;6327211;28;20238;-61
2023/06/21 04:34:34;;;;;;;25.23;22.87;;;23.30;99.90;;;;;;6327296;28;20287;-61
2023/06/21 04:37:37;;;;;;;26.37;24.07;;;23.40;99.90;;;;;;6327074;28;20372;-61
2023/06/21 04:40:41;;;;;;;25.83;23.63;;;23.40;99.90;;;;;;6326870;28;20230;-61
2023/06/21 04:43:45;;;;;;;24.80;22.70;;;23.50;99.90;;;;;;6327268;28;20230;-61
2023/06/21 04:46:48;;;;;;;24.37;22.13;;;23.60;99.90;;;;;;6326883;28;20222;-61
2023/06/21 04:49:53;;;;;;;26.00;23.80;;;23.60;99.90;;;;;;6326998;28;20218;-61
2023/06/21 04:53:04;;;;;;;26.03;23.83;;;23.70;99.90;;;;;;6327138;28;20271;-61
2023/06/21 04:56:07;;;;;;;25.37;23.27;;;23.80;99.90;;;;;;6327449;28;20220;-61
2023/06/21 04:59:10;;;;;;;24.43;22.40;;;23.70;99.90;;;;;;6326451;28;20222;-61
2023/06/21 05:02:13;;;;;;;26.30;24.17;;;23.80;99.90;;;;;;6326819;28;20230;-61
2023/06/21 05:05:18;;;;;;;24.40;22.40;;;23.80;99.90;;;;;;6326064;28;20222;-62
2023/06/21 05:08:22;;;;;;;27.57;24.97;;;23.80;99.90;;;;;;6326040;28;20387;-61
2023/06/21 05:11:26;;;;;;;25.97;23.73;;;23.80;99.90;;;;;;6326095;28;20641;-62
2023/06/21 05:14:29;;;;;;;24.73;22.63;;;23.90;99.90;;;;;;6326930;28;20222;-62
2023/06/21 05:17:32;;;;;;;24.93;22.70;;;24.10;99.90;;;;;;6326404;28;20669;-62
2023/06/21 05:20:37;;;;;;;25.10;22.90;;;24.20;99.90;;;;;;6325422;28;20282;-62
2023/06/21 05:23:40;;;;;;;24.33;22.37;;;24.40;99.90;;;;;;6325907;28;20538;-61
2023/06/21 05:26:44;;;;;;;25.03;22.87;;;24.50;99.90;;;;;;6326198;28;20239;-62
2023/06/21 05:29:47;;;;;;;25.13;22.90;;;24.60;99.90;;;;;;6325908;28;20286;-62
2023/06/21 05:32:50;;;;;;;24.90;22.83;;;24.80;99.90;;;;;;6325677;28;20224;-62
2023/06/21 05:35:55;;;;;;;25.27;23.17;;;24.90;99.90;;;;;;6325568;28;20240;-62
2023/06/21 05:38:58;;;;;;;25.73;23.37;;;25.00;99.90;;;;;;6316303;28;20225;-62
2023/06/21 05:42:01;;;;;;;27.30;25.00;;;25.10;99.90;;;;;;6325569;28;20229;-62
2023/06/21 05:45:09;;;;;;;26.13;23.93;;;25.20;99.90;;;;;;6325379;28;20267;-62
2023/06/21 05:48:12;;;;;;;27.17;24.67;;;25.30;99.90;;;;;;6324909;28;20331;-62
2023/06/21 05:51:16;;;;;;;26.40;24.07;;;25.50;99.90;;;;;;6325143;28;20230;-62
2023/06/21 05:54:19;;;;;;;26.57;24.37;;;25.60;99.90;;;;;;6324983;28;20543;-62
2023/06/21 05:57:24;;;;;;;25.90;23.47;;;25.80;99.90;;;;;;6325478;28;20236;-62
2023/06/21 06:00:30;;;;;;;27.20;24.90;;;25.90;99.90;;;;;;6324340;28;20249;-62
2023/06/21 06:03:33;;;;;;;28.17;25.87;;;26.10;99.90;;;;;;6324482;28;20242;-62
2023/06/21 06:06:39;;;;;;;25.73;23.70;;;26.20;99.90;;;;;;6324340;28;20677;-62
2023/06/21 06:09:42;;;;;;;25.10;23.13;;;26.30;99.90;;;;;;6323753;28;20221;-62
2023/06/21 06:12:45;;;;;;;26.67;24.23;;;26.30;99.90;;;;;;6323951;28;20221;-62
2023/06/21 06:15:48;;;;;;;24.90;22.90;;;26.40;99.90;;;;;;6323981;28;20227;-62
2023/06/21 06:18:52;;;;;;;25.97;23.63;;;26.60;99.90;;;;;;6323431;28;20221;-62
2023/06/21 06:21:56;;;;;;;25.90;23.83;;;26.90;99.90;;;;;;6323528;28;20340;-62
2023/06/21 06:24:59;;;;;;;26.10;23.60;;;27.30;99.90;;;;;;6324367;28;20225;-62
2023/06/21 06:28:03;;;;;;;25.30;23.00;;;27.70;99.80;;;;;;6324641;28;20230;-62
2023/06/21 06:31:06;;;;;;;26.30;24.00;;;28.00;99.00;;;;;;6324462;28;20229;-62
2023/06/21 06:34:09;;;;;;;25.63;23.40;;;28.30;98.30;;;;;;6324225;28;20314;-62
2023/06/21 06:37:14;;;;;;;25.33;23.03;;;28.60;98.00;;;;;;6323452;28;20554;-62
2023/06/21 06:40:23;;;;;;;26.67;24.37;;;29.10;97.30;;;;;;6324005;28;20336;-62
2023/06/21 06:43:27;;;;;;;25.87;23.57;;;29.70;96.00;;;;;;6318821;28;20232;-62
2023/06/21 06:46:30;;;;;;;24.95;22.90;;;30.40;95.00;;;;;;6323827;28;20331;-62
2023/06/21 06:49:33;;;;;;;23.95;21.67;;;31.20;93.50;;;;;;6324277;28;20225;-62
2023/06/21 06:52:38;;;;;;;25.75;23.75;;;31.80;92.30;;;;;;6324007;28;20225;-64
2023/06/21 06:55:41;;;;;;;24.27;22.27;;;32.50;90.60;;;;;;6324088;28;20366;-62
2023/06/21 06:58:44;;;;;;;24.58;22.45;;;33.00;88.40;;;;;;6324765;28;20244;-62
2023/06/21 07:01:48;;;;;;;22.27;20.58;;;33.50;84.90;;;;;;6328519;28;20673;-62
2023/06/21 07:04:51;;;;;;;24.85;22.95;;;33.80;82.60;;;;;;6328528;28;20221;-62
2023/06/21 07:07:56;;;;;;;23.10;21.50;;;34.40;79.70;;;;;;6329676;28;20495;-62
2023/06/21 07:10:59;;;;;;;21.77;20.27;;;35.00;77.70;;;;;;6328882;28;20227;-62
2023/06/21 07:14:02;;;;;;;23.23;21.08;;;35.50;74.70;;;;;;6328990;28;20211;-62
2023/06/21 07:17:09;;;;;;;23.08;21.23;;;36.10;71.90;;;;;;6328136;28;20302;-62
2023/06/21 07:20:12;;;;;;;22.05;20.23;;;36.40;69.60;;;;;;6328344;28;20233;-62
2023/06/21 07:23:17;;;;;;;23.77;21.88;;;36.50;65.80;;;;;;6328937;28;20296;-63
2023/06/21 07:26:20;;;;;;;24.58;22.63;;;36.20;64.80;;;;;;6328653;28;20667;-63
2023/06/21 07:29:27;;;;;;;22.65;20.92;;;36.20;65.10;;;;;;6328101;28;20662;-62
2023/06/21 07:32:30;;;;;;;22.90;21.20;;;36.60;65.20;;;;;;6328252;28;20224;-63
2023/06/21 07:35:34;;;;;;;23.58;21.65;;;37.00;64.20;;;;;;6327742;28;20234;-63
2023/06/21 07:38:38;;;;;;;22.73;21.02;;;37.80;60.70;;;;;;6324546;28;20224;-63
2023/06/21 07:41:42;;;;;;;24.48;22.25;;;38.10;58.70;;;;;;6328166;28;20229;-63
2023/06/21 07:44:45;;;;;;;22.52;20.60;;;38.10;58.70;;;;;;6328157;28;20229;-63
2023/06/21 07:47:48;;;;;;;22.58;20.83;;;38.20;57.50;;;;;;6324843;28;20236;-65
2023/06/21 07:50:51;;;;;;;23.30;21.52;;;38.20;55.70;;;;;;6327197;28;20244;-63
2023/06/21 07:53:56;;;;;;;22.02;19.90;;;38.10;54.40;;;;;;6327497;28;20222;-63
2023/06/21 07:56:59;;;;;;;19.08;17.73;;;37.70;53.90;;;;;;6324620;28;20236;-64
2023/06/21 08:00:11;;;;;;;22.42;20.08;;;37.50;54.20;;;;;;6327321;28;20309;-64
2023/06/21 08:03:15;;;;;;;24.80;22.92;;;37.10;54.50;;;;;;6327609;28;20221;-64
2023/06/21 08:06:18;;;;;;;19.80;18.30;;;36.80;55.20;;;;;;6327021;28;20257;-64
2023/06/21 08:09:25;;;;;;;20.52;18.55;;;36.50;54.30;;;;;;6327018;28;20539;-64
2023/06/21 08:12:28;;;;;;;19.52;18.02;;;36.30;54.90;;;;;;6326945;28;20312;-62
2023/06/21 08:15:31;;;;;;;18.27;16.95;;;36.10;55.40;;;;;;6327931;28;20222;-62
2023/06/21 08:18:35;;;;;;;20.35;18.65;;;36.00;54.90;;;;;;6326979;28;20320;-62
2023/06/21 08:21:39;;;;;;;19.95;18.45;;;35.80;55.10;;;;;;6326863;28;20658;-63
2023/06/21 08:24:44;;;;;;;20.33;18.77;;;35.80;55.80;;;;;;6326749;28;20693;-63
2023/06/21 08:27:47;;;;;;;19.23;17.83;;;35.90;56.30;;;;;;6327013;28;20431;-62
2023/06/21 08:30:52;;;;;;;17.88;16.58;;;35.90;55.80;;;;;;6326427;28;20559;-62
2023/06/21 08:33:55;;;;;;;19.35;17.75;;;35.80;54.50;;;;;;6326858;28;20562;-62
2023/06/21 08:36:58;;;;;;;17.10;15.90;;;35.80;53.90;;;;;;6326704;28;20235;-62
2023/06/21 08:40:03;;;;;;;18.50;17.02;;;35.70;53.60;;;;;;6326950;28;22200;-62
2023/06/21 08:43:07;;;;;;;17.85;16.33;;;35.60;53.80;;;;;;6326159;28;20213;-61
2023/06/21 08:46:11;;;;;;;18.60;17.02;;;35.60;53.50;;;;;;6326313;28;20218;-63
2023/06/21 08:49:18;;;;;;;18.15;16.75;;;35.60;53.70;;;;;;6326131;28;20275;-62
2023/06/21 08:52:23;;;;;;;19.35;17.95;;;35.70;53.90;;;;;;6316278;28;20252;-62
2023/06/21 08:55:30;;;;;;;17.40;15.63;;;35.90;53.90;;;;;;6325917;28;20257;-62
2023/06/21 08:58:40;;;;;;;18.40;16.63;;;35.70;51.80;;;;;;6326150;28;20226;-61
2023/06/21 09:01:51;;;;;;;17.75;16.35;;;35.30;52.80;;;;;;6325806;28;20367;-62
2023/06/21 09:04:58;;;;;;;20.10;18.45;;;35.30;52.60;;;;;;6326261;28;20216;-67
2023/06/21 09:08:03;;;;;;;21.08;19.20;;;35.30;54.00;;;;;;6326193;28;20190;-62
2023/06/21 09:11:12;;;;;;;15.48;14.10;;;35.40;55.20;;;;;;6326573;28;20646;-61
2023/06/21 09:14:15;;;;;;;16.52;14.55;;;35.10;51.00;;;;;;6325611;28;20592;-61
2023/06/21 09:17:19;;;;;;;19.65;17.58;;;35.00;52.00;;;;;;6326123;28;20542;-62
2023/06/21 09:20:27;;;;;;;20.08;18.25;;;35.00;54.20;;;;;;6315745;28;20226;-62
2023/06/21 09:23:30;;;;;;;19.85;18.00;;;35.20;54.70;;;;;;6299715;28;20652;-62
2023/06/21 09:26:36;;;;;;;18.55;16.95;;;35.30;54.20;;;;;;6300347;28;20232;-61
2023/06/21 09:29:39;;;;;;;16.15;14.85;;;35.30;53.50;;;;;;6300506;28;20236;-61
2023/06/21 09:32:43;;;;;;;16.70;15.13;;;35.00;53.40;;;;;;6300326;28;20236;-61
2023/06/21 09:35:46;;;;;;;18.55;16.92;;;35.10;53.10;;;;;;6300090;28;20562;-61
2023/06/21 09:38:49;;;;;;;20.48;18.48;;;35.10;53.00;;;;;;6299791;28;20530;-62
2023/06/21 09:41:55;;;;;;;14.90;13.50;;;35.30;54.80;;;;;;6299319;28;20300;-62
2023/06/21 09:45:01;;;;;;;13.77;12.38;;;35.40;51.60;;;;;;6300365;28;20288;-61
2023/06/21 09:48:04;;;;;;;16.23;12.63;;;35.20;48.80;;;;;;6322806;28;20259;-62
2023/06/21 09:51:09;;;;;;;14.55;13.23;;;35.00;49.50;;;;;;6324921;28;20309;-62
2023/06/21 09:54:13;;;;;;;16.55;15.25;;;35.00;50.80;;;;;;6315584;28;20236;-62
2023/06/21 09:57:18;;;;;;;16.30;15.00;;;35.30;52.40;;;;;;6324592;28;20236;-63
2023/06/21 10:00:21;;;;;;;16.90;15.55;;;35.30;50.40;;;;;;6324260;28;20562;-62
2023/06/21 10:03:26;;;;;;;16.83;15.38;;;35.20;51.90;;;;;;6323993;28;20690;-62
2023/06/21 10:06:29;;;;;;;17.67;15.82;;;35.30;52.10;;;;;;6323667;28;20236;-62
2023/06/21 10:09:37;;;;;;;15.52;14.18;;;35.30;51.80;;;;;;6324355;28;20232;-62
2023/06/21 10:12:51;;;;;;;17.40;15.70;;;35.50;50.40;;;;;;6324290;28;20243;-63
2023/06/21 10:15:59;;;;;;;16.42;15.02;;;35.50;50.50;;;;;;6324420;28;20241;-63
2023/06/21 10:19:04;;;;;;;14.43;13.38;;;35.50;51.50;;;;;;6309020;28;20221;-63
2023/06/21 10:22:09;;;;;;;15.75;14.48;;;35.60;50.20;;;;;;6323912;28;20227;-63
2023/06/21 10:25:15;;;;;;;16.25;15.05;;;35.80;50.50;;;;;;6323640;28;20228;-63
2023/06/21 10:28:22;;;;;;;15.05;13.90;;;35.80;50.70;;;;;;6324418;28;20261;-63
2023/06/21 10:31:27;;;;;;;16.30;15.00;;;35.60;50.70;;;;;;6324220;28;20246;-64
2023/06/21 10:34:45;;;;;;;15.23;13.60;;;35.70;51.60;;;;;;6323711;28;20558;-63
2023/06/21 10:37:56;;;;;;;16.27;14.98;;;35.60;50.80;;;;;;6323125;28;20224;-63
2023/06/21 10:41:01;;;;;;;14.80;13.40;;;35.80;49.80;;;;;;6323455;28;20571;-63
2023/06/21 10:44:06;;;;;;;17.70;16.25;;;35.90;49.90;;;;;;6323212;28;20217;-63
2023/06/21 10:47:10;;;;;;;17.08;15.68;;;35.70;51.10;;;;;;6323806;28;20311;-63
2023/06/21 10:50:14;;;;;;;16.70;15.30;;;35.70;51.50;;;;;;6323715;28;20226;-63
2023/06/21 10:53:18;;;;;;;16.10;14.80;;;35.50;52.10;;;;;;6324236;28;20225;-63
2023/06/21 10:56:26;;;;;;;17.40;16.10;;;35.70;52.00;;;;;;6323610;28;20351;-63
2023/06/21 10:59:33;;;;;;;17.67;16.27;;;35.70;52.70;;;;;;6323501;28;20233;-63
2023/06/21 11:02:37;;;;;;;17.65;16.08;;;35.60;53.00;;;;;;6324101;28;20328;-63
2023/06/21 11:05:41;;;;;;;18.35;16.90;;;35.70;53.90;;;;;;6323632;28;20736;-62
2023/06/21 11:08:44;;;;;;;17.10;15.70;;;35.70;53.30;;;;;;6323557;28;20872;-62
2023/06/21 11:11:51;;;;;;;16.88;15.30;;;35.60;52.80;;;;;;6323010;28;20532;-63
2023/06/21 11:14:57;;;;;;;15.68;14.48;;;35.60;52.40;;;;;;6323345;28;20306;-64
2023/06/21 11:18:02;;;;;;;17.23;15.57;;;35.70;52.10;;;;;;6323213;28;20226;-63
2023/06/21 11:21:07;;;;;;;15.98;14.52;;;35.90;52.30;;;;;;6323258;28;20235;-62
2023/06/21 11:24:11;;;;;;;16.10;15.00;;;36.00;51.70;;;;;;6323565;28;20226;-62
2023/06/21 11:27:14;;;;;;;16.63;15.23;;;36.10;50.90;;;;;;6323374;28;20226;-62
2023/06/21 11:30:19;;;;;;;16.25;14.77;;;36.10;50.70;;;;;;6323363;28;20237;-62
2023/06/21 11:33:29;;;;;;;16.05;14.75;;;36.20;50.60;;;;;;6323758;28;20237;-62
2023/06/21 11:36:35;;;;;;;16.05;14.63;;;35.90;50.90;;;;;;6323154;28;20598;-62
2023/06/21 11:39:40;;;;;;;17.05;15.55;;;35.70;51.30;;;;;;6298560;28;20608;-62
2023/06/21 11:42:45;;;;;;;16.65;15.07;;;35.70;51.40;;;;;;6297811;28;20229;-64
2023/06/21 11:46:00;;;;;;;16.88;15.27;;;35.80;50.10;;;;;;6307852;28;20335;-61
2023/06/21 11:49:03;;;;;;;16.92;15.20;;;36.00;50.40;;;;;;6327634;28;20225;-63
2023/06/21 11:52:06;;;;;;;15.73;14.15;;;36.10;49.70;;;;;;6327644;28;20582;-61
2023/06/21 11:55:14;;;;;;;17.45;16.05;;;36.20;50.50;;;;;;6327413;28;20512;-62
2023/06/21 11:58:18;;;;;;;17.77;16.23;;;35.90;51.20;;;;;;6327685;28;20229;-64
2023/06/21 12:01:22;;;;;;;17.13;15.60;;;35.70;52.30;;;;;;6327486;28;20238;-63
2023/06/21 12:04:26;;;;;;;17.27;15.63;;;35.90;52.50;;;;;;6327371;28;20312;-63
2023/06/21 12:07:30;;;;;;;17.08;15.48;;;35.80;52.30;;;;;;6327982;28;20231;-64
2023/06/21 12:10:33;;;;;;;16.00;14.70;;;35.90;51.60;;;;;;6327222;28;20574;-64
2023/06/21 12:13:38;;;;;;;17.15;15.75;;;36.00;50.90;;;;;;6327807;28;20218;-63
2023/06/21 12:16:43;;;;;;;16.75;15.40;;;35.70;52.70;;;;;;6327217;28;20225;-62
2023/06/21 12:19:46;;;;;;;18.00;16.42;;;35.70;52.50;;;;;;6327495;28;20559;-64
2023/06/21 12:22:50;;;;;;;17.55;16.05;;;35.60;52.90;;;;;;6326980;28;20802;-63
2023/06/21 12:25:55;;;;;;;17.17;15.40;;;35.70;52.30;;;;;;6327295;28;20225;-63
2023/06/21 12:28:58;;;;;;;17.15;15.88;;;36.00;51.30;;;;;;6327159;28;20689;-62
2023/06/21 12:32:04;;;;;;;16.20;14.80;;;36.30;51.80;;;;;;6327332;28;20232;-62
2023/06/21 12:35:08;;;;;;;17.20;15.80;;;36.30;52.30;;;;;;6327334;28;20225;-61
2023/06/21 12:38:15;;;;;;;17.45;15.88;;;36.50;51.60;;;;;;6327016;28;20675;-62
2023/06/21 12:41:20;;;;;;;15.75;14.35;;;36.40;50.50;;;;;;6326397;28;20257;-62
2023/06/21 12:44:26;;;;;;;16.05;13.93;;;36.50;50.10;;;;;;6326294;28;20234;-61
2023/06/21 12:47:32;;;;;;;15.93;14.35;;;36.40;49.20;;;;;;6326145;28;20240;-62
2023/06/21 12:50:36;;;;;;;15.80;14.60;;;36.10;49.70;;;;;;6324416;28;20283;-62
2023/06/21 12:53:42;;;;;;;15.73;14.25;;;36.30;49.00;;;;;;6325901;28;20665;-61
2023/06/21 12:56:48;;;;;;;15.88;14.27;;;36.30;48.80;;;;;;6325952;28;20241;-63
2023/06/21 12:59:51;;;;;;;15.80;14.40;;;36.30;47.70;;;;;;6326987;28;20233;-63
2023/06/21 13:02:57;;;;;;;13.13;12.10;;;36.30;48.40;;;;;;6326233;28;20237;-64
2023/06/21 13:06:02;;;;;;;13.55;12.25;;;36.10;46.90;;;;;;6326708;28;20230;-63
2023/06/21 13:09:06;;;;;;;14.10;12.60;;;36.00;48.40;;;;;;6326087;28;20291;-63
2023/06/21 13:12:10;;;;;;;14.57;13.18;;;36.10;48.30;;;;;;6326100;28;20232;-62
2023/06/21 13:15:13;;;;;;;14.30;13.15;;;36.20;48.70;;;;;;6326273;28;20225;-63
2023/06/21 13:18:18;;;;;;;14.55;13.27;;;36.10;48.80;;;;;;6326289;28;20231;-64
2023/06/21 13:21:23;;;;;;;15.32;13.88;;;36.00;49.40;;;;;;6325602;28;20225;-64
2023/06/21 13:24:29;;;;;;;15.75;14.45;;;35.90;49.50;;;;;;6325871;28;20234;-63
2023/06/21 13:27:34;;;;;;;13.95;12.85;;;35.90;49.40;;;;;;6325552;28;20222;-63
2023/06/21 13:30:37;;;;;;;15.68;14.18;;;35.70;49.40;;;;;;6325399;28;20382;-62
2023/06/21 13:33:42;;;;;;;14.95;13.48;;;35.40;50.10;;;;;;6325536;28;20308;-64
2023/06/21 13:36:45;;;;;;;15.65;14.32;;;35.40;50.70;;;;;;6325602;28;20241;-63
2023/06/21 13:39:48;;;;;;;15.32;13.90;;;35.40;50.60;;;;;;6325430;28;20673;-63
2023/06/21 13:42:52;;;;;;;18.08;15.60;;;35.30;50.80;;;;;;6325093;28;20228;-63
2023/06/21 13:45:57;;;;;;;16.27;14.75;;;35.30;51.30;;;;;;6326089;28;20245;-65
2023/06/21 13:49:02;;;;;;;15.98;13.48;;;35.40;50.40;;;;;;6331444;28;20279;-65
2023/06/21 13:52:06;;;;;;;15.07;13.65;;;35.50;50.50;;;;;;6327588;28;20238;-64
2023/06/21 13:55:11;;;;;;;15.63;13.43;;;35.30;50.60;;;;;;6328673;28;20252;-64
2023/06/21 13:58:14;;;;;;;14.40;12.90;;;35.20;50.50;;;;;;6327363;28;20654;-63
2023/06/21 14:01:17;;;;;;;14.85;12.70;;;35.20;50.80;;;;;;6325191;28;20244;-62
2023/06/21 14:04:25;;;;;;;12.68;11.57;;;35.20;50.70;;;;;;6324497;28;20229;-64
2023/06/21 14:07:29;;;;;;;14.32;12.23;;;35.10;49.70;;;;;;6324573;28;20299;-65
2023/06/21 14:10:32;;;;;;;14.15;12.85;;;35.00;50.40;;;;;;6319437;28;20229;-63
2023/06/21 14:13:36;;;;;;;13.48;11.75;;;34.70;50.10;;;;;;6324664;28;20536;-62
2023/06/21 14:16:39;;;;;;;14.38;12.82;;;34.50;49.60;;;;;;6324590;28;20687;-62
2023/06/21 14:19:44;;;;;;;14.35;13.10;;;34.30;50.80;;;;;;6324411;28;20253;-61
2023/06/21 14:22:47;;;;;;;15.68;13.85;;;34.30;51.60;;;;;;6324442;28;20356;-62
2023/06/21 14:25:50;;;;;;;14.50;13.20;;;34.30;51.90;;;;;;6324438;28;20221;-62
2023/06/21 14:28:53;;;;;;;14.63;13.05;;;34.20;51.90;;;;;;6324321;28;20247;-63
2023/06/21 14:31:57;;;;;;;13.90;12.38;;;34.10;52.60;;;;;;6324846;28;20221;-65
2023/06/21 14:35:01;;;;;;;13.90;12.68;;;34.00;53.70;;;;;;6324585;28;20201;-65
2023/06/21 14:38:04;;;;;;;14.02;12.73;;;34.10;53.10;;;;;;6324538;28;20210;-61
2023/06/21 14:41:08;;;;;;;14.20;12.13;;;34.20;52.50;;;;;;6323221;28;20546;-62
2023/06/21 14:44:11;;;;;;;13.52;12.20;;;34.20;52.80;;;;;;6323153;28;20649;-62
2023/06/21 14:47:14;;;;;;;14.60;12.77;;;34.10;51.70;;;;;;6323195;28;20255;-62
2023/06/21 14:50:19;;;;;;;14.23;12.18;;;34.10;52.30;;;;;;6323849;28;20710;-62
2023/06/21 14:53:22;;;;;;;12.05;10.80;;;34.00;52.50;;;;;;6324173;28;20308;-62
2023/06/21 14:56:25;;;;;;;13.63;12.30;;;34.00;53.60;;;;;;6323049;28;20658;-62
2023/06/21 14:59:29;;;;;;;12.55;11.48;;;33.90;53.40;;;;;;6323482;28;20306;-62
2023/06/21 15:02:32;;;;;;;11.90;10.88;;;33.70;54.40;;;;;;6323573;28;20232;-63
2023/06/21 15:05:37;;;;;;;13.05;11.95;;;33.40;54.90;;;;;;6323783;28;20689;-62
2023/06/21 15:08:40;;;;;;;12.48;11.23;;;33.30;55.40;;;;;;6323953;28;20693;-64
2023/06/21 15:11:43;;;;;;;13.60;12.32;;;33.00;58.00;;;;;;6323718;28;20241;-62
2023/06/21 15:14:46;;;;;;;14.35;12.95;;;32.80;59.10;;;;;;6323698;28;20233;-63
2023/06/21 15:17:49;;;;;;;14.25;12.88;;;32.50;57.10;;;;;;6323131;28;20217;-63
2023/06/21 15:20:54;;;;;;;13.75;12.48;;;32.40;57.70;;;;;;6323218;28;20230;-62
2023/06/21 15:23:57;;;;;;;13.55;12.15;;;32.30;58.00;;;;;;6324992;28;20226;-62
2023/06/21 15:27:00;;;;;;;17.58;12.55;;;32.30;58.50;;;;;;6326733;28;20322;-62
2023/06/21 15:30:04;;;;;;;14.32;13.02;;;32.20;58.70;;;;;;6327208;28;20218;-63
2023/06/21 15:33:07;;;;;;;13.43;12.02;;;32.30;59.30;;;;;;6336964;28;20669;-63
2023/06/21 15:36:11;;;;;;;13.38;12.15;;;32.20;59.70;;;;;;6326277;28;20232;-63